createdAt,value
2022-07-28T00:00:23.231Z,10.57
2022-07-28T00:00:55.563Z,9.65
2022-07-28T00:01:27.929Z,9.68
2022-07-28T00:02:01.355Z,10.43
2022-07-28T00:02:33.732Z,9.80
2022-07-28T00:03:06.097Z,10.30
2022-07-28T00:03:38.409Z,10.65
2022-07-28T00:04:10.886Z,10.25
2022-07-28T00:04:43.476Z,9.30
2022-07-28T00:05:16.168Z,9.70
2022-07-28T00:05:49.889Z,9.98
2022-07-28T00:06:22.561Z,9.73
2022-07-28T00:06:54.866Z,9.57
2022-07-28T00:07:27.308Z,9.02
2022-07-28T00:07:59.853Z,10.02
2022-07-28T00:08:32.220Z,9.60
2022-07-28T00:09:04.586Z,9.85
2022-07-28T00:09:36.889Z,10.68
2022-07-28T00:10:10.486Z,10.40
2022-07-28T00:10:42.786Z,9.73
2022-07-28T00:11:15.275Z,10.30
2022-07-28T00:11:54.370Z,9.88
2022-07-28T00:12:27.327Z,10.10
2022-07-28T00:13:02.867Z,10.07
2022-07-28T00:13:39.185Z,9.88
2022-07-28T00:14:11.805Z,10.70
2022-07-28T00:14:44.425Z,11.20
2022-07-28T00:15:16.996Z,10.50
2022-07-28T00:15:49.324Z,10.57
2022-07-28T00:16:21.909Z,10.30
2022-07-28T00:16:54.210Z,10.93
2022-07-28T00:17:26.595Z,10.60
2022-07-28T00:17:59.237Z,10.82
2022-07-28T00:18:31.627Z,12.23
2022-07-28T00:19:03.997Z,11.23
2022-07-28T00:19:36.471Z,13.20
2022-07-28T00:20:09.093Z,12.27
2022-07-28T00:20:41.402Z,11.23
2022-07-28T00:21:13.812Z,11.32
2022-07-28T00:21:46.470Z,12.30
2022-07-28T00:22:19.357Z,11.35
2022-07-28T00:22:51.656Z,12.95
2022-07-28T00:23:24.015Z,12.30
2022-07-28T00:24:11.455Z,12.20
2022-07-28T00:24:44.002Z,13.18
2022-07-28T00:25:16.412Z,12.70
2022-07-28T00:25:48.725Z,12.07
2022-07-28T00:26:21.071Z,13.18
2022-07-28T00:26:53.599Z,12.38
2022-07-28T00:27:26.343Z,12.38
2022-07-28T00:27:58.717Z,12.23
2022-07-28T00:28:31.012Z,11.80
2022-07-28T00:29:03.363Z,13.23
2022-07-28T00:29:49.743Z,13.07
2022-07-28T00:30:23.155Z,12.75
2022-07-28T00:30:55.829Z,12.48
2022-07-28T00:31:28.580Z,12.95
2022-07-28T00:32:01.034Z,12.57
2022-07-28T00:32:33.746Z,13.23
2022-07-28T00:33:06.249Z,12.25
2022-07-28T00:33:38.596Z,12.98
2022-07-28T00:34:11.117Z,12.02
2022-07-28T00:34:43.779Z,11.95
2022-07-28T00:35:16.474Z,12.63
2022-07-28T00:36:01.579Z,11.80
2022-07-28T00:36:33.899Z,12.45
2022-07-28T00:37:07.222Z,11.48
2022-07-28T00:37:40.061Z,12.57
2022-07-28T00:38:12.634Z,12.60
2022-07-28T00:38:45.160Z,11.57
2022-07-28T00:39:21.081Z,12.40
2022-07-28T00:39:53.693Z,11.65
2022-07-28T00:40:46.133Z,13.30
2022-07-28T00:41:20.855Z,12.43
2022-07-28T00:41:53.302Z,11.88
2022-07-28T00:42:25.709Z,11.43
2022-07-28T00:42:58.140Z,12.13
2022-07-28T00:43:30.535Z,13.27
2022-07-28T00:44:05.816Z,12.90
2022-07-28T00:44:42.107Z,12.63
2022-07-28T00:45:14.782Z,11.95
2022-07-28T00:45:47.633Z,12.32
2022-07-28T00:46:21.752Z,11.30
2022-07-28T00:46:54.265Z,12.77
2022-07-28T00:47:26.674Z,14.02
2022-07-28T00:48:06.738Z,12.52
2022-07-28T00:48:39.714Z,12.85
2022-07-28T00:49:13.915Z,12.50
2022-07-28T00:49:46.425Z,11.93
2022-07-28T00:50:20.017Z,13.32
2022-07-28T00:50:52.583Z,11.43
2022-07-28T00:51:25.640Z,12.98
2022-07-28T00:51:58.096Z,12.52
2022-07-28T00:52:30.654Z,13.40
2022-07-28T00:53:03.044Z,13.18
2022-07-28T00:53:37.789Z,13.00
2022-07-28T00:54:10.405Z,13.52
2022-07-28T00:54:43.177Z,13.25
2022-07-28T00:55:15.585Z,13.50
2022-07-28T00:56:04.084Z,12.73
2022-07-28T00:56:38.896Z,12.32
2022-07-28T00:57:11.563Z,12.48
2022-07-28T00:57:44.008Z,13.15
2022-07-28T00:58:16.511Z,13.13
2022-07-28T00:58:49.626Z,13.63
2022-07-28T00:59:22.004Z,13.40
2022-07-28T00:59:54.363Z,13.85
2022-07-28T01:00:26.855Z,12.55
2022-07-28T01:00:59.263Z,13.88
2022-07-28T01:01:31.785Z,13.00
2022-07-28T01:02:04.736Z,12.77
2022-07-28T01:02:37.293Z,13.05
2022-07-28T01:03:10.189Z,12.88
2022-07-28T01:03:44.493Z,13.27
2022-07-28T01:04:18.480Z,12.98
2022-07-28T01:04:51.440Z,13.70
2022-07-28T01:05:43.906Z,12.93
2022-07-28T01:06:31.592Z,12.93
2022-07-28T01:07:12.979Z,12.88
2022-07-28T01:07:45.502Z,12.48
2022-07-28T01:08:24.252Z,13.02
2022-07-28T01:09:16.754Z,12.82
2022-07-28T01:09:56.744Z,11.70
2022-07-28T01:11:01.120Z,11.90
2022-07-28T01:11:51.171Z,11.27
2022-07-28T01:12:55.680Z,10.82
2022-07-28T01:13:47.223Z,12.45
2022-07-28T01:14:39.846Z,11.63
2022-07-28T01:15:27.642Z,12.52
2022-07-28T01:16:04.147Z,11.60
2022-07-28T01:16:43.326Z,12.35
2022-07-28T01:17:22.532Z,13.10
2022-07-28T01:17:57.481Z,12.48
2022-07-28T01:18:32.861Z,11.88
2022-07-28T01:19:09.034Z,12.50
2022-07-28T01:19:48.892Z,12.32
2022-07-28T01:20:21.253Z,12.77
2022-07-28T01:21:04.231Z,12.30
2022-07-28T01:21:38.142Z,12.52
2022-07-28T01:22:12.472Z,13.07
2022-07-28T01:23:03.453Z,12.40
2022-07-28T01:23:35.834Z,12.57
2022-07-28T01:24:11.390Z,12.52
2022-07-28T01:24:56.919Z,13.95
2022-07-28T01:25:48.763Z,13.25
2022-07-28T01:26:27.679Z,12.32
2022-07-28T01:27:03.039Z,11.95
2022-07-28T01:27:57.123Z,11.98
2022-07-28T01:28:37.523Z,13.00
2022-07-28T01:29:22.021Z,13.93
2022-07-28T01:30:08.169Z,12.75
2022-07-28T01:30:44.369Z,13.48
2022-07-28T01:31:19.787Z,12.43
2022-07-28T01:31:56.476Z,13.10
2022-07-28T01:32:30.753Z,12.68
2022-07-28T01:33:04.901Z,13.65
2022-07-28T01:33:39.862Z,12.93
2022-07-28T01:34:17.605Z,12.93
2022-07-28T01:35:00.871Z,12.88
2022-07-28T01:35:42.033Z,12.63
2022-07-28T01:36:23.086Z,13.18
2022-07-28T01:36:58.287Z,12.35
2022-07-28T01:37:31.163Z,12.93
2022-07-28T01:38:05.302Z,13.43
2022-07-28T01:38:38.591Z,12.80
2022-07-28T01:39:11.711Z,12.60
2022-07-28T01:39:45.708Z,11.70
2022-07-28T01:40:20.093Z,12.75
2022-07-28T01:40:54.617Z,13.52
2022-07-28T01:41:28.632Z,11.93
2022-07-28T01:42:02.585Z,12.00
2022-07-28T01:42:40.088Z,12.45
2022-07-28T01:43:16.997Z,13.27
2022-07-28T01:43:55.409Z,13.73
2022-07-28T01:44:28.434Z,13.02
2022-07-28T01:45:01.306Z,12.45
2022-07-28T01:45:34.573Z,13.27
2022-07-28T01:46:07.786Z,11.95
2022-07-28T01:46:40.589Z,13.25
2022-07-28T01:47:13.486Z,13.52
2022-07-28T01:47:47.011Z,12.82
2022-07-28T01:48:20.355Z,12.93
2022-07-28T01:48:54.151Z,12.10
2022-07-28T01:49:27.411Z,13.32
2022-07-28T01:50:01.420Z,12.15
2022-07-28T01:50:34.593Z,12.77
2022-07-28T01:51:07.795Z,12.50
2022-07-28T01:51:40.251Z,14.35
2022-07-28T01:52:13.876Z,12.05
2022-07-28T01:52:48.112Z,12.10
2022-07-28T01:53:21.096Z,13.20
2022-07-28T01:53:55.403Z,13.50
2022-07-28T01:54:29.408Z,13.40
2022-07-28T01:55:02.971Z,14.00
2022-07-28T01:55:36.314Z,13.10
2022-07-28T01:56:09.099Z,11.63
2022-07-28T01:56:42.151Z,12.93
2022-07-28T01:57:15.349Z,11.48
2022-07-28T01:57:48.820Z,12.57
2022-07-28T01:58:23.234Z,12.80
2022-07-28T01:58:56.021Z,12.73
2022-07-28T01:59:29.853Z,12.60
2022-07-28T02:00:06.775Z,13.48
2022-07-28T02:01:17.677Z,11.77
2022-07-28T02:01:51.186Z,12.27
2022-07-28T02:02:24.216Z,14.18
2022-07-28T02:02:57.070Z,13.45
2022-07-28T02:03:30.618Z,12.45
2022-07-28T02:04:04.774Z,12.68
2022-07-28T02:04:39.010Z,12.82
2022-07-28T02:05:12.681Z,13.48
2022-07-28T02:05:50.643Z,12.70
2022-07-28T02:06:23.736Z,13.77
2022-07-28T02:06:57.282Z,13.50
2022-07-28T02:07:30.545Z,13.07
2022-07-28T02:08:04.225Z,13.48
2022-07-28T02:08:38.412Z,13.90
2022-07-28T02:09:12.133Z,12.95
2022-07-28T02:09:45.644Z,13.20
2022-07-28T02:10:18.592Z,14.27
2022-07-28T02:11:11.399Z,12.82
2022-07-28T02:11:46.575Z,11.98
2022-07-28T02:12:19.982Z,12.55
2022-07-28T02:12:53.158Z,12.63
2022-07-28T02:13:25.826Z,12.82
2022-07-28T02:13:59.189Z,12.70
2022-07-28T02:14:33.106Z,13.55
2022-07-28T02:15:08.890Z,13.40
2022-07-28T02:15:41.719Z,12.40
2022-07-28T02:16:14.982Z,13.55
2022-07-28T02:16:50.015Z,13.15
2022-07-28T02:17:25.966Z,13.15
2022-07-28T02:17:59.212Z,13.98
2022-07-28T02:18:32.489Z,13.88
2022-07-28T02:19:04.986Z,13.23
2022-07-28T02:19:37.727Z,13.55
2022-07-28T02:20:11.149Z,12.20
2022-07-28T02:20:43.714Z,12.65
2022-07-28T02:21:16.803Z,13.25
2022-07-28T02:21:49.921Z,11.48
2022-07-28T02:22:22.572Z,12.35
2022-07-28T02:22:55.224Z,12.95
2022-07-28T02:23:27.970Z,11.38
2022-07-28T02:24:00.653Z,12.38
2022-07-28T02:24:33.716Z,13.05
2022-07-28T02:25:06.767Z,12.27
2022-07-28T02:25:39.533Z,12.10
2022-07-28T02:26:12.474Z,12.75
2022-07-28T02:26:49.170Z,12.73
2022-07-28T02:27:23.854Z,12.13
2022-07-28T02:28:01.611Z,12.30
2022-07-28T02:28:34.581Z,12.30
2022-07-28T02:29:14.918Z,12.05
2022-07-28T02:30:05.908Z,12.25
2022-07-28T02:30:41.676Z,11.57
2022-07-28T02:31:20.340Z,12.07
2022-07-28T02:31:57.527Z,11.52
2022-07-28T02:32:38.009Z,11.45
2022-07-28T02:33:15.103Z,11.52
2022-07-28T02:33:59.210Z,12.07
2022-07-28T02:34:34.157Z,11.05
2022-07-28T02:35:19.763Z,11.05
2022-07-28T02:35:53.749Z,12.25
2022-07-28T02:36:35.090Z,12.38
2022-07-28T02:37:09.804Z,11.82
2022-07-28T02:37:46.773Z,11.88
2022-07-28T02:38:30.473Z,12.95
2022-07-28T02:39:04.188Z,11.77
2022-07-28T02:39:44.797Z,11.48
2022-07-28T02:40:34.857Z,11.98
2022-07-28T02:41:19.014Z,11.07
2022-07-28T02:41:55.737Z,11.02
2022-07-28T02:42:30.942Z,10.55
2022-07-28T02:43:04.149Z,11.70
2022-07-28T02:43:44.994Z,11.70
2022-07-28T02:44:26.833Z,11.40
2022-07-28T02:45:00.642Z,12.35
2022-07-28T02:45:33.997Z,13.05
2022-07-28T02:46:09.210Z,12.02
2022-07-28T02:46:44.008Z,11.35
2022-07-28T02:47:19.363Z,13.07
2022-07-28T02:47:53.029Z,11.98
2022-07-28T02:48:28.005Z,11.70
2022-07-28T02:49:02.855Z,11.90
2022-07-28T02:49:36.311Z,11.27
2022-07-28T02:50:09.272Z,11.60
2022-07-28T02:50:43.032Z,12.88
2022-07-28T02:51:16.190Z,11.48
2022-07-28T02:51:49.584Z,12.13
2022-07-28T02:52:23.101Z,11.45
2022-07-28T02:52:57.341Z,12.23
2022-07-28T02:53:30.534Z,11.70
2022-07-28T02:54:03.765Z,11.60
2022-07-28T02:54:36.621Z,11.68
2022-07-28T02:55:09.633Z,11.95
2022-07-28T02:55:42.569Z,11.15
2022-07-28T02:56:16.668Z,11.23
2022-07-28T02:56:53.552Z,12.27
2022-07-28T02:57:27.114Z,11.82
2022-07-28T02:58:00.183Z,13.27
2022-07-28T02:58:33.293Z,12.10
2022-07-28T02:59:06.071Z,13.63
2022-07-28T02:59:38.537Z,12.38
2022-07-28T03:00:11.309Z,12.75
2022-07-28T03:00:44.535Z,12.27
2022-07-28T03:01:20.731Z,11.88
2022-07-28T03:01:54.009Z,13.05
2022-07-28T03:02:26.806Z,12.60
2022-07-28T03:02:59.211Z,12.13
2022-07-28T03:03:33.950Z,12.93
2022-07-28T03:04:07.101Z,12.35
2022-07-28T03:04:58.774Z,11.70
2022-07-28T03:05:32.763Z,12.90
2022-07-28T03:06:05.234Z,13.13
2022-07-28T03:06:37.694Z,11.35
2022-07-28T03:07:10.970Z,13.23
2022-07-28T03:07:50.684Z,12.60
2022-07-28T03:08:23.872Z,12.15
2022-07-28T03:08:57.769Z,12.90
2022-07-28T03:09:30.544Z,12.73
2022-07-28T03:10:03.713Z,11.82
2022-07-28T03:10:36.082Z,12.27
2022-07-28T03:11:08.926Z,12.32
2022-07-28T03:12:01.489Z,12.02
2022-07-28T03:12:33.865Z,11.48
2022-07-28T03:13:09.464Z,11.45
2022-07-28T03:13:41.951Z,11.07
2022-07-28T03:14:14.826Z,11.50
2022-07-28T03:14:47.504Z,11.13
2022-07-28T03:15:19.956Z,12.45
2022-07-28T03:15:52.275Z,11.57
2022-07-28T03:16:24.724Z,11.85
2022-07-28T03:16:57.152Z,12.77
2022-07-28T03:17:29.612Z,12.13
2022-07-28T03:18:02.668Z,10.68
2022-07-28T03:18:34.995Z,10.90
2022-07-28T03:19:08.292Z,12.00
2022-07-28T03:19:40.857Z,12.05
2022-07-28T03:20:13.284Z,11.82
2022-07-28T03:20:46.240Z,11.50
2022-07-28T03:21:18.609Z,12.98
2022-07-28T03:21:53.218Z,12.02
2022-07-28T03:22:25.569Z,11.02
2022-07-28T03:22:58.688Z,11.73
2022-07-28T03:23:35.634Z,10.75
2022-07-28T03:24:10.155Z,11.75
2022-07-28T03:24:45.062Z,11.82
2022-07-28T03:25:19.633Z,10.73
2022-07-28T03:25:54.562Z,10.38
2022-07-28T03:26:37.436Z,11.02
2022-07-28T03:27:20.391Z,9.82
2022-07-28T03:27:54.133Z,9.95
2022-07-28T03:28:27.566Z,11.20
2022-07-28T03:29:00.534Z,11.10
2022-07-28T03:29:33.470Z,11.00
2022-07-28T03:30:08.222Z,10.65
2022-07-28T03:30:48.830Z,9.77
2022-07-28T03:31:22.133Z,11.00
2022-07-28T03:31:56.411Z,11.07
2022-07-28T03:32:30.655Z,9.85
2022-07-28T03:33:03.379Z,11.07
2022-07-28T03:33:35.738Z,10.25
2022-07-28T03:34:11.401Z,9.70
2022-07-28T03:34:43.948Z,10.52
2022-07-28T03:35:16.609Z,10.45
2022-07-28T03:35:50.982Z,9.73
2022-07-28T03:36:26.574Z,9.40
2022-07-28T03:37:05.508Z,9.23
2022-07-28T03:37:45.678Z,10.05
2022-07-28T03:38:54.147Z,10.02
2022-07-28T03:39:27.918Z,9.10
2022-07-28T03:40:05.299Z,9.05
2022-07-28T03:40:38.953Z,9.20
2022-07-28T03:41:11.669Z,9.05
2022-07-28T03:41:45.078Z,9.82
2022-07-28T03:42:21.142Z,8.55
2022-07-28T03:42:54.139Z,9.10
2022-07-28T03:43:27.576Z,8.45
2022-07-28T03:44:00.769Z,9.18
2022-07-28T03:44:33.382Z,9.18
2022-07-28T03:45:06.050Z,9.23
2022-07-28T03:45:40.996Z,8.52
2022-07-28T03:46:13.788Z,8.60
2022-07-28T03:46:46.518Z,8.65
2022-07-28T03:47:27.802Z,9.63
2022-07-28T03:48:01.035Z,9.05
2022-07-28T03:48:34.938Z,8.48
2022-07-28T03:49:08.175Z,8.43
2022-07-28T03:49:40.830Z,9.55
2022-07-28T03:50:13.312Z,8.95
2022-07-28T03:50:45.649Z,8.07
2022-07-28T03:51:18.599Z,8.20
2022-07-28T03:51:50.961Z,9.80
2022-07-28T03:52:24.191Z,9.38
2022-07-28T03:52:58.905Z,8.68
2022-07-28T03:53:31.219Z,7.13
2022-07-28T03:54:03.885Z,8.20
2022-07-28T03:54:36.359Z,8.10
2022-07-28T03:55:09.252Z,9.07
2022-07-28T03:55:41.667Z,8.70
2022-07-28T03:56:13.981Z,7.75
2022-07-28T03:56:46.337Z,7.88
2022-07-28T03:57:18.784Z,7.82
2022-07-28T03:57:51.272Z,7.80
2022-07-28T03:58:26.232Z,8.23
2022-07-28T03:59:01.427Z,8.60
2022-07-28T03:59:33.759Z,7.53
2022-07-28T04:00:09.668Z,8.63
2022-07-28T04:00:44.923Z,7.63
2022-07-28T04:01:17.397Z,7.57
2022-07-28T04:01:49.932Z,8.57
2022-07-28T04:02:22.324Z,7.93
2022-07-28T04:02:54.745Z,8.25
2022-07-28T04:03:37.634Z,8.25
2022-07-28T04:04:17.032Z,7.55
2022-07-28T04:04:49.801Z,10.65
2022-07-28T04:05:22.145Z,8.65
2022-07-28T04:05:58.063Z,8.60
2022-07-28T04:06:30.421Z,8.40
2022-07-28T04:07:03.155Z,8.27
2022-07-28T04:07:35.580Z,8.52
2022-07-28T04:08:07.906Z,8.85
2022-07-28T04:08:40.304Z,7.68
2022-07-28T04:09:12.656Z,8.35
2022-07-28T04:09:45.079Z,8.63
2022-07-28T04:10:18.106Z,8.40
2022-07-28T04:10:50.571Z,8.13
2022-07-28T04:11:23.448Z,9.20
2022-07-28T04:11:56.020Z,8.95
2022-07-28T04:12:28.419Z,8.13
2022-07-28T04:13:01.166Z,8.15
2022-07-28T04:13:34.846Z,7.90
2022-07-28T04:14:07.209Z,8.07
2022-07-28T04:14:39.553Z,9.00
2022-07-28T04:15:15.538Z,8.43
2022-07-28T04:15:47.866Z,7.47
2022-07-28T04:16:20.245Z,8.45
2022-07-28T04:16:54.922Z,8.07
2022-07-28T04:17:27.361Z,7.85
2022-07-28T04:18:00.229Z,8.68
2022-07-28T04:18:32.619Z,8.65
2022-07-28T04:19:04.975Z,7.70
2022-07-28T04:19:37.364Z,8.50
2022-07-28T04:20:10.400Z,7.68
2022-07-28T04:20:42.761Z,6.60
2022-07-28T04:21:15.527Z,7.95
2022-07-28T04:21:47.989Z,7.32
2022-07-28T04:22:20.346Z,8.27
2022-07-28T04:22:53.277Z,8.07
2022-07-28T04:23:25.605Z,7.35
2022-07-28T04:24:01.840Z,7.90
2022-07-28T04:24:34.577Z,7.75
2022-07-28T04:25:07.240Z,7.75
2022-07-28T04:25:40.129Z,7.68
2022-07-28T04:26:12.762Z,7.38
2022-07-28T04:26:45.136Z,7.28
2022-07-28T04:27:17.496Z,7.75
2022-07-28T04:27:50.179Z,8.25
2022-07-28T04:28:22.637Z,8.07
2022-07-28T04:28:55.258Z,7.50
2022-07-28T04:29:27.767Z,7.78
2022-07-28T04:30:00.047Z,7.00
2022-07-28T04:30:32.576Z,7.45
2022-07-28T04:31:05.132Z,7.78
2022-07-28T04:31:37.486Z,7.95
2022-07-28T04:32:09.836Z,8.18
2022-07-28T04:32:42.450Z,7.90
2022-07-28T04:33:14.906Z,8.90
2022-07-28T04:33:47.535Z,7.57
2022-07-28T04:34:19.916Z,7.75
2022-07-28T04:34:52.344Z,8.63
2022-07-28T04:35:25.162Z,7.70
2022-07-28T04:35:57.669Z,7.95
2022-07-28T04:36:30.385Z,7.88
2022-07-28T04:37:02.987Z,7.57
2022-07-28T04:37:35.634Z,7.60
2022-07-28T04:38:08.433Z,7.80
2022-07-28T04:38:40.831Z,7.30
2022-07-28T04:39:13.145Z,7.28
2022-07-28T04:39:46.012Z,7.82
2022-07-28T04:40:18.523Z,7.75
2022-07-28T04:40:51.013Z,7.38
2022-07-28T04:41:23.721Z,8.02
2022-07-28T04:41:56.090Z,7.80
2022-07-28T04:42:28.827Z,7.90
2022-07-28T04:43:01.603Z,7.40
2022-07-28T04:43:34.036Z,7.97
2022-07-28T04:44:06.437Z,6.97
2022-07-28T04:44:42.566Z,7.05
2022-07-28T04:45:14.964Z,7.90
2022-07-28T04:45:53.730Z,7.22
2022-07-28T04:46:26.999Z,8.20
2022-07-28T04:46:59.473Z,7.20
2022-07-28T04:47:31.977Z,6.85
2022-07-28T04:48:04.533Z,7.07
2022-07-28T04:48:36.868Z,6.90
2022-07-28T04:49:09.267Z,8.20
2022-07-28T04:49:41.655Z,7.75
2022-07-28T04:50:16.306Z,6.72
2022-07-28T04:50:53.186Z,7.65
2022-07-28T04:51:25.961Z,6.40
2022-07-28T04:51:58.444Z,7.22
2022-07-28T04:52:30.808Z,6.90
2022-07-28T04:53:03.294Z,6.82
2022-07-28T04:53:35.782Z,6.57
2022-07-28T04:54:08.097Z,7.88
2022-07-28T04:54:40.515Z,6.82
2022-07-28T04:55:12.946Z,6.30
2022-07-28T04:55:45.649Z,7.05
2022-07-28T04:56:19.143Z,6.25
2022-07-28T04:56:51.443Z,9.00
2022-07-28T04:57:24.211Z,7.45
2022-07-28T04:57:58.073Z,7.32
2022-07-28T04:58:31.300Z,6.82
2022-07-28T04:59:05.289Z,7.15
2022-07-28T04:59:38.903Z,7.28
2022-07-28T05:00:15.100Z,7.70
2022-07-28T05:00:50.045Z,7.03
2022-07-28T05:01:24.092Z,7.25
2022-07-28T05:01:59.925Z,7.65
2022-07-28T05:02:32.316Z,7.30
2022-07-28T05:03:05.413Z,7.03
2022-07-28T05:03:37.775Z,6.72
2022-07-28T05:04:10.314Z,6.68
2022-07-28T05:04:42.718Z,6.70
2022-07-28T05:05:15.217Z,7.13
2022-07-28T05:05:54.158Z,6.43
2022-07-28T05:06:27.279Z,7.18
2022-07-28T05:06:59.808Z,6.93
2022-07-28T05:07:32.278Z,7.05
2022-07-28T05:08:04.741Z,7.00
2022-07-28T05:08:37.039Z,6.97
2022-07-28T05:09:09.456Z,7.15
2022-07-28T05:09:41.825Z,7.35
2022-07-28T05:10:14.167Z,7.47
2022-07-28T05:10:46.473Z,6.78
2022-07-28T05:11:18.825Z,8.25
2022-07-28T05:11:51.245Z,6.53
2022-07-28T05:12:23.603Z,6.65
2022-07-28T05:12:55.999Z,6.78
2022-07-28T05:13:33.773Z,6.70
2022-07-28T05:14:07.777Z,7.88
2022-07-28T05:14:44.833Z,6.93
2022-07-28T05:15:17.361Z,6.47
2022-07-28T05:15:49.667Z,7.72
2022-07-28T05:16:22.096Z,6.38
2022-07-28T05:16:54.461Z,6.47
2022-07-28T05:17:27.508Z,7.20
2022-07-28T05:17:59.853Z,6.57
2022-07-28T05:18:32.685Z,5.13
2022-07-28T05:19:05.325Z,6.53
2022-07-28T05:19:37.721Z,6.30
2022-07-28T05:20:10.429Z,12.25
2022-07-28T05:20:42.969Z,7.20
2022-07-28T05:21:15.287Z,7.38
2022-07-28T05:21:54.781Z,7.45
2022-07-28T05:22:27.567Z,7.25
2022-07-28T05:22:59.940Z,6.20
2022-07-28T05:23:32.724Z,6.57
2022-07-28T05:24:05.226Z,6.50
2022-07-28T05:24:37.473Z,6.28
2022-07-28T05:25:28.049Z,6.75
2022-07-28T05:26:00.465Z,5.55
2022-07-28T05:26:32.885Z,6.82
2022-07-28T05:27:05.216Z,6.15
2022-07-28T05:27:37.966Z,5.88
2022-07-28T05:28:10.712Z,5.65
2022-07-28T05:28:43.198Z,6.65
2022-07-28T05:29:15.548Z,6.10
2022-07-28T05:29:48.137Z,6.25
2022-07-28T05:30:21.189Z,6.90
2022-07-28T05:30:54.336Z,6.43
2022-07-28T05:31:26.765Z,6.38
2022-07-28T05:31:59.227Z,7.05
2022-07-28T05:32:31.611Z,5.93
2022-07-28T05:33:04.079Z,5.85
2022-07-28T05:33:36.855Z,6.60
2022-07-28T05:34:09.172Z,6.07
2022-07-28T05:34:41.523Z,5.88
2022-07-28T05:35:13.942Z,5.75
2022-07-28T05:35:50.811Z,6.28
2022-07-28T05:36:23.390Z,6.20
2022-07-28T05:36:55.780Z,5.30
2022-07-28T05:37:29.293Z,5.75
2022-07-28T05:38:01.922Z,6.47
2022-07-28T05:38:34.246Z,5.63
2022-07-28T05:39:06.604Z,5.95
2022-07-28T05:39:39.901Z,5.90
2022-07-28T05:40:16.542Z,6.47
2022-07-28T05:40:49.102Z,6.70
2022-07-28T05:41:21.438Z,5.78
2022-07-28T05:41:53.917Z,6.05
2022-07-28T05:42:28.534Z,5.30
2022-07-28T05:43:00.867Z,6.05
2022-07-28T05:43:33.714Z,6.10
2022-07-28T05:44:06.043Z,5.68
2022-07-28T05:44:38.694Z,6.18
2022-07-28T05:45:16.941Z,6.25
2022-07-28T05:45:50.059Z,5.60
2022-07-28T05:46:22.554Z,6.22
2022-07-28T05:46:54.953Z,5.43
2022-07-28T05:47:27.338Z,6.30
2022-07-28T05:47:59.700Z,5.90
2022-07-28T05:48:32.120Z,6.05
2022-07-28T05:49:05.467Z,5.30
2022-07-28T05:49:39.127Z,6.15
2022-07-28T05:50:11.529Z,6.05
2022-07-28T05:50:44.003Z,5.53
2022-07-28T05:51:16.453Z,5.55
2022-07-28T05:51:48.790Z,5.72
2022-07-28T05:52:21.732Z,5.43
2022-07-28T05:52:53.981Z,5.60
2022-07-28T05:53:26.237Z,5.22
2022-07-28T05:53:58.673Z,6.22
2022-07-28T05:54:31.114Z,5.47
2022-07-28T05:55:03.576Z,5.53
2022-07-28T05:55:35.886Z,5.95
2022-07-28T05:56:28.448Z,6.68
2022-07-28T05:57:00.850Z,5.80
2022-07-28T05:57:33.233Z,5.15
2022-07-28T05:58:05.828Z,5.60
2022-07-28T05:58:38.338Z,5.32
2022-07-28T05:59:10.739Z,5.70
2022-07-28T05:59:43.047Z,5.85
2022-07-28T06:00:16.664Z,5.13
2022-07-28T06:00:49.402Z,5.50
2022-07-28T06:01:21.961Z,5.10
2022-07-28T06:01:54.392Z,5.57
2022-07-28T06:02:26.992Z,5.85
2022-07-28T06:03:02.370Z,5.45
2022-07-28T06:03:41.474Z,4.97
2022-07-28T06:04:30.111Z,4.95
2022-07-28T06:05:02.925Z,5.32
2022-07-28T06:05:37.062Z,5.55
2022-07-28T06:06:29.348Z,5.93
2022-07-28T06:07:01.703Z,5.03
2022-07-28T06:07:42.394Z,4.60
2022-07-28T06:08:16.155Z,5.32
2022-07-28T06:08:48.586Z,5.18
2022-07-28T06:09:20.945Z,4.88
2022-07-28T06:09:53.323Z,5.15
2022-07-28T06:10:26.919Z,5.00
2022-07-28T06:10:59.315Z,5.57
2022-07-28T06:11:31.647Z,5.63
2022-07-28T06:12:04.176Z,5.93
2022-07-28T06:12:43.354Z,5.25
2022-07-28T06:13:15.990Z,5.32
2022-07-28T06:13:48.781Z,5.75
2022-07-28T06:14:21.347Z,6.25
2022-07-28T06:14:53.681Z,5.30
2022-07-28T06:15:27.310Z,5.40
2022-07-28T06:15:59.951Z,5.50
2022-07-28T06:16:32.363Z,5.28
2022-07-28T06:17:05.225Z,5.30
2022-07-28T06:17:38.125Z,5.30
2022-07-28T06:18:10.425Z,5.65
2022-07-28T06:18:44.211Z,4.63
2022-07-28T06:19:19.530Z,4.53
2022-07-28T06:19:51.994Z,5.90
2022-07-28T06:20:25.367Z,5.03
2022-07-28T06:20:57.884Z,5.00
2022-07-28T06:21:30.263Z,4.78
2022-07-28T06:22:03.993Z,5.25
2022-07-28T06:22:49.471Z,6.95
2022-07-28T06:23:23.939Z,5.15
2022-07-28T06:23:56.226Z,5.20
2022-07-28T06:24:28.739Z,5.70
2022-07-28T06:25:01.047Z,4.80
2022-07-28T06:25:33.573Z,5.60
2022-07-28T06:26:05.991Z,5.38
2022-07-28T06:26:44.424Z,5.78
2022-07-28T06:27:17.353Z,6.22
2022-07-28T06:27:50.705Z,7.38
2022-07-28T06:28:23.267Z,5.53
2022-07-28T06:28:55.665Z,5.88
2022-07-28T06:29:27.914Z,5.45
2022-07-28T06:30:00.151Z,5.07
2022-07-28T06:30:32.647Z,5.60
2022-07-28T06:31:05.094Z,5.38
2022-07-28T06:31:37.647Z,5.20
2022-07-28T06:32:10.096Z,5.90
2022-07-28T06:32:42.699Z,5.90
2022-07-28T06:33:17.382Z,5.53
2022-07-28T06:33:50.044Z,5.60
2022-07-28T06:34:23.029Z,5.50
2022-07-28T06:34:55.435Z,5.57
2022-07-28T06:35:27.974Z,6.90
2022-07-28T06:36:00.294Z,7.70
2022-07-28T06:36:32.753Z,5.15
2022-07-28T06:37:05.692Z,5.60
2022-07-28T06:37:38.293Z,4.50
2022-07-28T06:38:10.813Z,6.15
2022-07-28T06:38:43.986Z,5.60
2022-07-28T06:39:17.180Z,5.65
2022-07-28T06:39:49.979Z,6.93
2022-07-28T06:40:23.195Z,6.10
2022-07-28T06:40:55.837Z,6.15
2022-07-28T06:41:29.033Z,5.88
2022-07-28T06:42:01.829Z,5.28
2022-07-28T06:42:34.566Z,7.28
2022-07-28T06:43:08.009Z,6.15
2022-07-28T06:43:40.526Z,5.88
2022-07-28T06:44:13.646Z,7.15
2022-07-28T06:44:58.292Z,7.45
2022-07-28T06:45:31.172Z,4.57
2022-07-28T06:46:03.644Z,5.20
2022-07-28T06:46:36.391Z,5.75
2022-07-28T06:47:08.857Z,7.47
2022-07-28T06:47:45.806Z,8.05
2022-07-28T06:48:20.425Z,7.57
2022-07-28T06:48:58.079Z,5.53
2022-07-28T06:49:30.671Z,5.07
2022-07-28T06:50:03.856Z,5.22
2022-07-28T06:50:39.433Z,5.63
2022-07-28T06:51:12.323Z,4.97
2022-07-28T06:51:44.752Z,5.45
2022-07-28T06:52:20.842Z,5.18
2022-07-28T06:52:53.574Z,5.20
2022-07-28T06:53:26.280Z,5.28
2022-07-28T06:54:00.588Z,5.47
2022-07-28T06:54:32.945Z,5.05
2022-07-28T06:55:05.822Z,6.15
2022-07-28T06:55:39.091Z,4.80
2022-07-28T06:56:15.792Z,4.93
2022-07-28T06:56:49.525Z,4.97
2022-07-28T06:57:22.450Z,5.60
2022-07-28T06:58:05.579Z,5.75
2022-07-28T06:58:38.024Z,5.78
2022-07-28T06:59:10.591Z,5.28
2022-07-28T06:59:43.303Z,5.70
2022-07-28T07:00:16.142Z,5.65
2022-07-28T07:00:48.569Z,5.57
2022-07-28T07:01:21.001Z,5.53
2022-07-28T07:01:53.653Z,5.97
2022-07-28T07:02:28.122Z,5.82
2022-07-28T07:03:01.283Z,5.75
2022-07-28T07:03:34.143Z,5.57
2022-07-28T07:04:08.587Z,5.65
2022-07-28T07:04:41.021Z,5.53
2022-07-28T07:05:14.188Z,5.40
2022-07-28T07:05:46.661Z,5.30
2022-07-28T07:06:24.713Z,5.38
2022-07-28T07:06:57.052Z,5.70
2022-07-28T07:07:29.395Z,5.38
2022-07-28T07:08:02.264Z,5.95
2022-07-28T07:08:34.904Z,5.70
2022-07-28T07:09:07.401Z,5.28
2022-07-28T07:09:39.774Z,4.93
2022-07-28T07:10:12.360Z,5.15
2022-07-28T07:10:44.724Z,5.60
2022-07-28T07:11:18.611Z,5.68
2022-07-28T07:11:51.095Z,5.60
2022-07-28T07:12:23.763Z,4.93
2022-07-28T07:12:56.062Z,5.15
2022-07-28T07:13:29.234Z,5.60
2022-07-28T07:14:02.692Z,5.78
2022-07-28T07:14:35.268Z,6.50
2022-07-28T07:15:07.818Z,5.50
2022-07-28T07:15:40.038Z,5.47
2022-07-28T07:16:12.401Z,5.93
2022-07-28T07:16:44.914Z,5.38
2022-07-28T07:17:17.320Z,5.60
2022-07-28T07:17:49.542Z,5.63
2022-07-28T07:18:21.820Z,4.90
2022-07-28T07:18:54.367Z,6.35
2022-07-28T07:19:26.613Z,5.25
2022-07-28T07:19:58.950Z,5.75
2022-07-28T07:20:31.249Z,5.40
2022-07-28T07:21:03.567Z,4.97
2022-07-28T07:21:35.948Z,5.70
2022-07-28T07:22:08.543Z,4.82
2022-07-28T07:22:45.242Z,4.93
2022-07-28T07:23:17.548Z,5.22
2022-07-28T07:23:49.944Z,5.50
2022-07-28T07:24:22.470Z,5.50
2022-07-28T07:24:57.644Z,5.22
2022-07-28T07:25:30.334Z,4.95
2022-07-28T07:26:05.867Z,5.22
2022-07-28T07:26:38.587Z,5.30
2022-07-28T07:27:11.034Z,4.85
2022-07-28T07:27:43.832Z,5.03
2022-07-28T07:28:16.500Z,4.78
2022-07-28T07:28:49.141Z,5.60
2022-07-28T07:29:23.071Z,5.35
2022-07-28T07:29:55.392Z,5.07
2022-07-28T07:30:27.984Z,4.95
2022-07-28T07:31:00.404Z,4.70